Lancaster, TX

2:35 PM CDT on July 05, 2015 (GMT -0500)
GHFD | | Change Station
CLOSE
Current Station
Personal Weather Station
Location: Red Oak, TX
Elevation: 709 ft
Nearby Weather Stations
Active Advisory: Flood Warning

Elev 709 ft 32.55 °N, 96.86 °W | Updated 7 minutes ago

Partly Cloudy
Partly Cloudy
91.2 °F
Feels Like 97 °F
N
14.5
Wind Variable Wind from SSW

Today
High -- | Low -- °F
--% Chance of Precip.
Yesterday
High -- | Low -- °F
Precip. -- in
6:25 AM 8:38 PM
Waning Gibbous, 82% visible
Pressure 29.98 in
Visibility 10.0 miles
Clouds Few 4300 ft
Heat Index 97 °F
Dew Point 70 °F
Humidity 50%
Rainfall 0.00 in
Snow Depth Not available.
UV 12 out of 12
Pollen 4.20 out of 12
Air Quality Not available.
Flu Activity Not available.
METAR KRBD 051853Z 18009G19KT 150V220 10SM FEW043 32/21 A3001 RMK AO2 SLP151 T03220211

More Conditions Fewer Conditions

Pressure 29.98 in
Visibility 10.0 miles
Clouds Few 4300 ft
Heat Index 97 °F
Dew Point 70 °F
Humidity 50%
Rainfall 0.00 in
Snow Depth Not available.
UV 12 out of 12
Pollen 4.20 out of 12
Air Quality Not available.
Flu Activity Not available.
METAR KRBD 051853Z 18009G19KT 150V220 10SM FEW043 32/21 A3001 RMK AO2 SLP151 T03220211

More Conditions Fewer Conditions

10-Day Weather Forecast

×

Almanac

Astronomy

Jul. 05, 2015 Rise Set
Actual Time
Civil Twilight
Nautical Twilight
Astronomical Twilight
Moon
Length of Visible Light
Length of Day
Tomorrow will be .
, % of the Moon is Illuminated

Today's Extremes

State Highs State Lows

Community

WunderPhotos

Upload Photos

1,835,358 photos uploaded!

WunderBlogs® & News

Nearby

Air Quality

  Air Quality AQ Index Pollutant
Not available.

Snow Depth

Station Depth Elevation

Earthquake Activity

City Distance Mag. Time & Date
Minimum magnitude displayed is 2.5.

Coastal Water Temperatures

Place Temperature

Stations

Nearby Weather Stations

Station Location Temp. Windchill Dew Point Humidity Wind Precip. Elev Updated Type
                   
Flood Warning
Statement as of 9:48 AM CDT on July 05, 2015

The Flood Warning continues for
the Elm Fork Trinity River near Carrollton.
* At 0915 am Sunday the stage was 8.24 feet.
* Flood stage is 8 feet.
* Minor flooding is occurring and minor flooding is forecast.
* Forecast... the river will continue rising to a crest near 8 feet
by Tuesday morning then begin falling but remain above flood stage.
* At 8 feet, minor flooding will occur downstream from the gauge.


Lat... Lon 3300 9700 3287 9699 3287 9687 3300 9688